sensor_id;sensor_type;location;lat;lon;timestamp;P1;durP1;ratioP1;P2;durP2;ratioP2
30303;SDS011;17112;48.636;10.152;2023-01-01T00:00:58;696.10;;;500.70;;
30303;SDS011;17112;48.636;10.152;2023-01-01T00:03:24;635.20;;;441.58;;
30303;SDS011;17112;48.636;10.152;2023-01-01T00:05:49;682.80;;;479.23;;
30303;SDS011;17112;48.636;10.152;2023-01-01T00:08:15;711.90;;;515.53;;
30303;SDS011;17112;48.636;10.152;2023-01-01T00:10:41;714.70;;;515.22;;
30303;SDS011;17112;48.636;10.152;2023-01-01T00:13:06;668.33;;;478.38;;
30303;SDS011;17112;48.636;10.152;2023-01-01T00:15:32;662.80;;;466.65;;
30303;SDS011;17112;48.636;10.152;2023-01-01T00:17:58;650.78;;;462.33;;
30303;SDS011;17112;48.636;10.152;2023-01-01T00:20:23;644.15;;;452.05;;
30303;SDS011;17112;48.636;10.152;2023-01-01T00:22:49;632.75;;;438.25;;
30303;SDS011;17112;48.636;10.152;2023-01-01T00:25:15;603.70;;;416.55;;
30303;SDS011;17112;48.636;10.152;2023-01-01T00:27:42;620.08;;;424.77;;
30303;SDS011;17112;48.636;10.152;2023-01-01T00:30:08;588.05;;;398.10;;
30303;SDS011;17112;48.636;10.152;2023-01-01T00:32:34;462.70;;;292.88;;
30303;SDS011;17112;48.636;10.152;2023-01-01T00:35:00;475.35;;;306.77;;
30303;SDS011;17112;48.636;10.152;2023-01-01T00:37:26;507.90;;;335.05;;
30303;SDS011;17112;48.636;10.152;2023-01-01T00:39:52;476.85;;;312.17;;
30303;SDS011;17112;48.636;10.152;2023-01-01T00:42:18;487.17;;;318.17;;
30303;SDS011;17112;48.636;10.152;2023-01-01T00:44:44;440.55;;;292.70;;
30303;SDS011;17112;48.636;10.152;2023-01-01T00:47:09;487.83;;;322.70;;
30303;SDS011;17112;48.636;10.152;2023-01-01T00:49:35;498.38;;;325.33;;
30303;SDS011;17112;48.636;10.152;2023-01-01T00:52:01;524.55;;;342.30;;
30303;SDS011;17112;48.636;10.152;2023-01-01T00:54:27;512.75;;;341.25;;
30303;SDS011;17112;48.636;10.152;2023-01-01T00:56:53;527.63;;;346.02;;
30303;SDS011;17112;48.636;10.152;2023-01-01T00:59:19;517.63;;;340.15;;
30303;SDS011;17112;48.636;10.152;2023-01-01T01:01:45;512.15;;;335.48;;
30303;SDS011;17112;48.636;10.152;2023-01-01T01:04:11;514.03;;;343.35;;
30303;SDS011;17112;48.636;10.152;2023-01-01T01:06:37;499.00;;;333.25;;
30303;SDS011;17112;48.636;10.152;2023-01-01T01:09:02;451.27;;;293.17;;
30303;SDS011;17112;48.636;10.152;2023-01-01T01:11:28;410.88;;;267.73;;
30303;SDS011;17112;48.636;10.152;2023-01-01T01:13:55;396.10;;;259.95;;
30303;SDS011;17112;48.636;10.152;2023-01-01T01:16:22;386.17;;;247.45;;
30303;SDS011;17112;48.636;10.152;2023-01-01T01:18:51;358.30;;;220.88;;
30303;SDS011;17112;48.636;10.152;2023-01-01T01:21:18;308.02;;;190.38;;
30303;SDS011;17112;48.636;10.152;2023-01-01T01:23:46;314.70;;;191.25;;
30303;SDS011;17112;48.636;10.152;2023-01-01T01:26:14;312.58;;;191.35;;
30303;SDS011;17112;48.636;10.152;2023-01-01T01:28:41;233.73;;;136.43;;
30303;SDS011;17112;48.636;10.152;2023-01-01T01:31:08;249.30;;;142.85;;
30303;SDS011;17112;48.636;10.152;2023-01-01T01:33:34;222.13;;;122.88;;
30303;SDS011;17112;48.636;10.152;2023-01-01T01:36:01;223.10;;;127.15;;
30303;SDS011;17112;48.636;10.152;2023-01-01T01:38:28;223.13;;;128.68;;
30303;SDS011;17112;48.636;10.152;2023-01-01T01:40:53;223.25;;;127.35;;
30303;SDS011;17112;48.636;10.152;2023-01-01T01:43:20;229.05;;;131.55;;
30303;SDS011;17112;48.636;10.152;2023-01-01T01:45:49;201.13;;;114.90;;
30303;SDS011;17112;48.636;10.152;2023-01-01T01:48:19;246.70;;;143.80;;
30303;SDS011;17112;48.636;10.152;2023-01-01T01:50:46;265.30;;;162.90;;
30303;SDS011;17112;48.636;10.152;2023-01-01T01:53:19;311.45;;;206.75;;
30303;SDS011;17112;48.636;10.152;2023-01-01T01:55:58;337.92;;;222.05;;
30303;SDS011;17112;48.636;10.152;2023-01-01T01:58:27;364.38;;;216.35;;
30303;SDS011;17112;48.636;10.152;2023-01-01T02:00:55;351.08;;;221.25;;
30303;SDS011;17112;48.636;10.152;2023-01-01T02:03:21;404.15;;;224.43;;
30303;SDS011;17112;48.636;10.152;2023-01-01T02:05:50;311.10;;;215.40;;
30303;SDS011;17112;48.636;10.152;2023-01-01T02:08:16;361.73;;;222.65;;
30303;SDS011;17112;48.636;10.152;2023-01-01T02:10:45;346.50;;;210.02;;
30303;SDS011;17112;48.636;10.152;2023-01-01T02:13:11;358.65;;;199.27;;
30303;SDS011;17112;48.636;10.152;2023-01-01T02:15:39;360.27;;;196.45;;
30303;SDS011;17112;48.636;10.152;2023-01-01T02:18:19;305.10;;;175.15;;
30303;SDS011;17112;48.636;10.152;2023-01-01T02:20:58;348.17;;;164.18;;
30303;SDS011;17112;48.636;10.152;2023-01-01T02:23:47;199.13;;;127.70;;
30303;SDS011;17112;48.636;10.152;2023-01-01T02:32:09;521.90;;;153.35;;
30303;SDS011;17112;48.636;10.152;2023-01-01T02:34:45;468.70;;;149.00;;
30303;SDS011;17112;48.636;10.152;2023-01-01T02:37:16;617.15;;;169.02;;
30303;SDS011;17112;48.636;10.152;2023-01-01T02:39:45;411.38;;;167.98;;
30303;SDS011;17112;48.636;10.152;2023-01-01T02:42:15;537.42;;;170.48;;
30303;SDS011;17112;48.636;10.152;2023-01-01T02:44:43;348.23;;;166.15;;
30303;SDS011;17112;48.636;10.152;2023-01-01T02:47:15;333.98;;;160.00;;
30303;SDS011;17112;48.636;10.152;2023-01-01T02:52:27;260.27;;;155.63;;
30303;SDS011;17112;48.636;10.152;2023-01-01T02:58:19;335.83;;;130.63;;
30303;SDS011;17112;48.636;10.152;2023-01-01T03:04:01;366.05;;;133.23;;
30303;SDS011;17112;48.636;10.152;2023-01-01T03:06:40;525.50;;;132.63;;
30303;SDS011;17112;48.636;10.152;2023-01-01T03:09:35;444.45;;;135.52;;
30303;SDS011;17112;48.636;10.152;2023-01-01T03:12:09;347.73;;;133.60;;
30303;SDS011;17112;48.636;10.152;2023-01-01T03:14:56;330.35;;;128.85;;
30303;SDS011;17112;48.636;10.152;2023-01-01T03:17:36;258.75;;;122.07;;
30303;SDS011;17112;48.636;10.152;2023-01-01T03:20:13;186.52;;;117.72;;
30303;SDS011;17112;48.636;10.152;2023-01-01T03:22:45;189.98;;;117.60;;
30303;SDS011;17112;48.636;10.152;2023-01-01T03:25:24;209.98;;;122.93;;
30303;SDS011;17112;48.636;10.152;2023-01-01T03:28:01;220.23;;;126.75;;
30303;SDS011;17112;48.636;10.152;2023-01-01T03:30:31;285.40;;;125.18;;
30303;SDS011;17112;48.636;10.152;2023-01-01T03:33:04;358.70;;;122.18;;
30303;SDS011;17112;48.636;10.152;2023-01-01T03:35:45;317.75;;;117.78;;
30303;SDS011;17112;48.636;10.152;2023-01-01T03:38:18;185.93;;;111.32;;
30303;SDS011;17112;48.636;10.152;2023-01-01T03:41:26;190.57;;;119.40;;
30303;SDS011;17112;48.636;10.152;2023-01-01T03:46:33;297.60;;;112.70;;
30303;SDS011;17112;48.636;10.152;2023-01-01T03:49:01;454.52;;;116.32;;
30303;SDS011;17112;48.636;10.152;2023-01-01T03:54:11;394.83;;;110.25;;
30303;SDS011;17112;48.636;10.152;2023-01-01T03:56:45;313.08;;;100.55;;
30303;SDS011;17112;48.636;10.152;2023-01-01T04:02:33;347.52;;;103.28;;
30303;SDS011;17112;48.636;10.152;2023-01-01T04:05:02;400.67;;;104.88;;
30303;SDS011;17112;48.636;10.152;2023-01-01T04:07:31;375.02;;;104.72;;
30303;SDS011;17112;48.636;10.152;2023-01-01T04:09:58;452.90;;;107.40;;
30303;SDS011;17112;48.636;10.152;2023-01-01T04:12:26;444.20;;;103.15;;
30303;SDS011;17112;48.636;10.152;2023-01-01T04:14:53;371.35;;;105.22;;
30303;SDS011;17112;48.636;10.152;2023-01-01T04:17:19;572.75;;;112.38;;
30303;SDS011;17112;48.636;10.152;2023-01-01T04:19:45;590.05;;;107.00;;
30303;SDS011;17112;48.636;10.152;2023-01-01T04:22:10;474.98;;;102.07;;
30303;SDS011;17112;48.636;10.152;2023-01-01T04:24:36;428.50;;;98.55;;
30303;SDS011;17112;48.636;10.152;2023-01-01T04:27:02;385.17;;;87.22;;
30303;SDS011;17112;48.636;10.152;2023-01-01T04:29:28;260.25;;;91.28;;
30303;SDS011;17112;48.636;10.152;2023-01-01T04:31:54;238.38;;;88.32;;
30303;SDS011;17112;48.636;10.152;2023-01-01T04:34:19;205.80;;;85.20;;
30303;SDS011;17112;48.636;10.152;2023-01-01T04:36:45;282.83;;;88.75;;
30303;SDS011;17112;48.636;10.152;2023-01-01T04:39:11;335.50;;;89.10;;
30303;SDS011;17112;48.636;10.152;2023-01-01T04:41:36;277.52;;;95.38;;
30303;SDS011;17112;48.636;10.152;2023-01-01T04:44:02;285.88;;;98.30;;
30303;SDS011;17112;48.636;10.152;2023-01-01T04:46:28;200.32;;;97.65;;
30303;SDS011;17112;48.636;10.152;2023-01-01T04:48:54;154.82;;;92.55;;
30303;SDS011;17112;48.636;10.152;2023-01-01T04:51:20;155.43;;;90.68;;
30303;SDS011;17112;48.636;10.152;2023-01-01T04:53:46;119.30;;;80.13;;
30303;SDS011;17112;48.636;10.152;2023-01-01T04:56:13;126.95;;;83.93;;
30303;SDS011;17112;48.636;10.152;2023-01-01T04:58:43;132.13;;;83.30;;
30303;SDS011;17112;48.636;10.152;2023-01-01T05:03:43;132.93;;;87.32;;
30303;SDS011;17112;48.636;10.152;2023-01-01T05:06:10;183.63;;;88.45;;
30303;SDS011;17112;48.636;10.152;2023-01-01T05:08:37;222.20;;;89.45;;
30303;SDS011;17112;48.636;10.152;2023-01-01T05:11:05;191.75;;;82.05;;
30303;SDS011;17112;48.636;10.152;2023-01-01T05:13:33;165.13;;;83.82;;
30303;SDS011;17112;48.636;10.152;2023-01-01T05:16:03;190.73;;;81.15;;
30303;SDS011;17112;48.636;10.152;2023-01-01T05:18:29;172.02;;;79.68;;
30303;SDS011;17112;48.636;10.152;2023-01-01T05:21:02;129.38;;;80.43;;
30303;SDS011;17112;48.636;10.152;2023-01-01T05:23:29;134.02;;;82.30;;
30303;SDS011;17112;48.636;10.152;2023-01-01T05:25:55;156.60;;;76.78;;
30303;SDS011;17112;48.636;10.152;2023-01-01T05:28:21;199.20;;;83.82;;
30303;SDS011;17112;48.636;10.152;2023-01-01T05:30:48;156.18;;;82.32;;
30303;SDS011;17112;48.636;10.152;2023-01-01T05:33:17;219.68;;;80.47;;
30303;SDS011;17112;48.636;10.152;2023-01-01T05:35:43;230.25;;;80.97;;
30303;SDS011;17112;48.636;10.152;2023-01-01T05:38:09;212.02;;;77.70;;
30303;SDS011;17112;48.636;10.152;2023-01-01T05:40:37;140.45;;;78.28;;
30303;SDS011;17112;48.636;10.152;2023-01-01T05:43:04;170.27;;;78.07;;
30303;SDS011;17112;48.636;10.152;2023-01-01T05:45:31;137.73;;;77.00;;
30303;SDS011;17112;48.636;10.152;2023-01-01T05:47:56;111.90;;;72.15;;
30303;SDS011;17112;48.636;10.152;2023-01-01T05:50:22;125.47;;;73.13;;
30303;SDS011;17112;48.636;10.152;2023-01-01T05:52:47;152.48;;;69.70;;
30303;SDS011;17112;48.636;10.152;2023-01-01T05:55:13;144.60;;;61.80;;
30303;SDS011;17112;48.636;10.152;2023-01-01T05:57:39;108.95;;;65.55;;
30303;SDS011;17112;48.636;10.152;2023-01-01T06:00:04;97.45;;;65.70;;
30303;SDS011;17112;48.636;10.152;2023-01-01T06:02:31;95.47;;;65.03;;
30303;SDS011;17112;48.636;10.152;2023-01-01T06:04:57;91.20;;;62.88;;
30303;SDS011;17112;48.636;10.152;2023-01-01T06:07:22;88.32;;;63.05;;
30303;SDS011;17112;48.636;10.152;2023-01-01T06:09:48;89.53;;;60.65;;
30303;SDS011;17112;48.636;10.152;2023-01-01T06:12:14;82.82;;;59.17;;
30303;SDS011;17112;48.636;10.152;2023-01-01T06:14:39;73.72;;;50.47;;
30303;SDS011;17112;48.636;10.152;2023-01-01T06:17:05;61.10;;;42.25;;
30303;SDS011;17112;48.636;10.152;2023-01-01T06:19:31;54.60;;;39.63;;
30303;SDS011;17112;48.636;10.152;2023-01-01T06:21:56;51.47;;;36.72;;
30303;SDS011;17112;48.636;10.152;2023-01-01T06:24:22;49.08;;;35.47;;
30303;SDS011;17112;48.636;10.152;2023-01-01T06:26:47;47.97;;;33.55;;
30303;SDS011;17112;48.636;10.152;2023-01-01T06:29:13;49.38;;;33.22;;
30303;SDS011;17112;48.636;10.152;2023-01-01T06:31:39;41.10;;;29.05;;
30303;SDS011;17112;48.636;10.152;2023-01-01T06:34:04;38.35;;;26.50;;
30303;SDS011;17112;48.636;10.152;2023-01-01T06:36:30;35.95;;;25.15;;
30303;SDS011;17112;48.636;10.152;2023-01-01T06:38:56;40.70;;;27.83;;
30303;SDS011;17112;48.636;10.152;2023-01-01T06:41:24;40.83;;;28.95;;
30303;SDS011;17112;48.636;10.152;2023-01-01T06:43:51;50.88;;;31.88;;
30303;SDS011;17112;48.636;10.152;2023-01-01T06:46:25;49.83;;;35.55;;
30303;SDS011;17112;48.636;10.152;2023-01-01T06:51:20;51.63;;;34.55;;
30303;SDS011;17112;48.636;10.152;2023-01-01T06:53:48;54.00;;;36.95;;
30303;SDS011;17112;48.636;10.152;2023-01-01T06:56:14;57.22;;;40.45;;
30303;SDS011;17112;48.636;10.152;2023-01-01T06:58:40;60.25;;;39.60;;
30303;SDS011;17112;48.636;10.152;2023-01-01T07:01:10;59.33;;;38.92;;
30303;SDS011;17112;48.636;10.152;2023-01-01T07:03:38;51.88;;;35.97;;
30303;SDS011;17112;48.636;10.152;2023-01-01T07:06:05;55.65;;;35.42;;
30303;SDS011;17112;48.636;10.152;2023-01-01T07:08:32;52.55;;;34.30;;
30303;SDS011;17112;48.636;10.152;2023-01-01T07:10:58;53.78;;;34.60;;
30303;SDS011;17112;48.636;10.152;2023-01-01T07:13:24;56.75;;;39.08;;
30303;SDS011;17112;48.636;10.152;2023-01-01T07:15:51;58.63;;;38.60;;
30303;SDS011;17112;48.636;10.152;2023-01-01T07:18:17;58.90;;;40.08;;
30303;SDS011;17112;48.636;10.152;2023-01-01T07:20:54;55.45;;;38.05;;
30303;SDS011;17112;48.636;10.152;2023-01-01T07:23:22;48.60;;;34.60;;
30303;SDS011;17112;48.636;10.152;2023-01-01T07:25:49;53.97;;;34.58;;
30303;SDS011;17112;48.636;10.152;2023-01-01T07:28:15;49.50;;;34.33;;
30303;SDS011;17112;48.636;10.152;2023-01-01T07:30:41;49.75;;;33.75;;
30303;SDS011;17112;48.636;10.152;2023-01-01T07:33:10;48.25;;;32.35;;
30303;SDS011;17112;48.636;10.152;2023-01-01T07:35:38;42.85;;;29.15;;
30303;SDS011;17112;48.636;10.152;2023-01-01T07:38:04;41.35;;;28.63;;
30303;SDS011;17112;48.636;10.152;2023-01-01T07:40:29;40.63;;;28.00;;
30303;SDS011;17112;48.636;10.152;2023-01-01T07:42:55;39.42;;;26.88;;
30303;SDS011;17112;48.636;10.152;2023-01-01T07:45:21;35.70;;;26.02;;
30303;SDS011;17112;48.636;10.152;2023-01-01T07:47:47;36.63;;;25.30;;
30303;SDS011;17112;48.636;10.152;2023-01-01T07:50:17;37.50;;;26.33;;
30303;SDS011;17112;48.636;10.152;2023-01-01T07:52:43;39.67;;;25.88;;
30303;SDS011;17112;48.636;10.152;2023-01-01T07:55:13;36.33;;;25.80;;
30303;SDS011;17112;48.636;10.152;2023-01-01T07:57:43;34.47;;;24.25;;
30303;SDS011;17112;48.636;10.152;2023-01-01T08:00:10;33.67;;;24.05;;
30303;SDS011;17112;48.636;10.152;2023-01-01T08:02:38;36.28;;;25.63;;
30303;SDS011;17112;48.636;10.152;2023-01-01T08:05:04;38.50;;;28.40;;
30303;SDS011;17112;48.636;10.152;2023-01-01T08:07:30;41.83;;;28.98;;
30303;SDS011;17112;48.636;10.152;2023-01-01T08:09:56;52.72;;;32.00;;
30303;SDS011;17112;48.636;10.152;2023-01-01T08:12:22;41.70;;;31.27;;
30303;SDS011;17112;48.636;10.152;2023-01-01T08:14:48;46.72;;;30.92;;
30303;SDS011;17112;48.636;10.152;2023-01-01T08:17:16;54.22;;;35.72;;
30303;SDS011;17112;48.636;10.152;2023-01-01T08:19:41;57.15;;;36.25;;
30303;SDS011;17112;48.636;10.152;2023-01-01T08:22:09;54.28;;;35.25;;
30303;SDS011;17112;48.636;10.152;2023-01-01T08:24:35;47.97;;;35.17;;
30303;SDS011;17112;48.636;10.152;2023-01-01T08:27:00;50.40;;;35.00;;
30303;SDS011;17112;48.636;10.152;2023-01-01T08:29:26;48.80;;;35.38;;
30303;SDS011;17112;48.636;10.152;2023-01-01T08:31:51;44.78;;;30.88;;
30303;SDS011;17112;48.636;10.152;2023-01-01T08:34:17;43.15;;;29.45;;
30303;SDS011;17112;48.636;10.152;2023-01-01T08:36:43;42.55;;;28.08;;
30303;SDS011;17112;48.636;10.152;2023-01-01T08:39:08;38.67;;;25.90;;
30303;SDS011;17112;48.636;10.152;2023-01-01T08:41:34;36.88;;;26.98;;
30303;SDS011;17112;48.636;10.152;2023-01-01T08:44:00;35.28;;;24.35;;
30303;SDS011;17112;48.636;10.152;2023-01-01T08:46:26;34.67;;;24.35;;
30303;SDS011;17112;48.636;10.152;2023-01-01T08:48:51;30.80;;;21.05;;
30303;SDS011;17112;48.636;10.152;2023-01-01T08:51:17;41.08;;;28.08;;
30303;SDS011;17112;48.636;10.152;2023-01-01T08:53:43;33.45;;;22.55;;
30303;SDS011;17112;48.636;10.152;2023-01-01T08:56:09;34.90;;;21.42;;
30303;SDS011;17112;48.636;10.152;2023-01-01T08:58:36;26.20;;;18.17;;
30303;SDS011;17112;48.636;10.152;2023-01-01T09:01:04;23.15;;;16.80;;
30303;SDS011;17112;48.636;10.152;2023-01-01T09:03:30;59.05;;;35.08;;
30303;SDS011;17112;48.636;10.152;2023-01-01T09:05:57;45.97;;;29.52;;
30303;SDS011;17112;48.636;10.152;2023-01-01T09:08:23;114.78;;;71.15;;
30303;SDS011;17112;48.636;10.152;2023-01-01T09:10:50;52.03;;;36.58;;
30303;SDS011;17112;48.636;10.152;2023-01-01T09:13:16;90.30;;;54.75;;
30303;SDS011;17112;48.636;10.152;2023-01-01T09:15:44;65.45;;;38.90;;
30303;SDS011;17112;48.636;10.152;2023-01-01T09:18:10;49.80;;;31.23;;
30303;SDS011;17112;48.636;10.152;2023-01-01T09:20:36;64.72;;;41.55;;
30303;SDS011;17112;48.636;10.152;2023-01-01T09:23:03;41.38;;;26.40;;
30303;SDS011;17112;48.636;10.152;2023-01-01T09:25:29;34.30;;;21.75;;
30303;SDS011;17112;48.636;10.152;2023-01-01T09:27:56;27.83;;;18.30;;
30303;SDS011;17112;48.636;10.152;2023-01-01T09:30:26;24.13;;;15.82;;
30303;SDS011;17112;48.636;10.152;2023-01-01T09:32:52;23.50;;;15.07;;
30303;SDS011;17112;48.636;10.152;2023-01-01T09:35:18;32.80;;;21.77;;
30303;SDS011;17112;48.636;10.152;2023-01-01T09:37:44;35.67;;;22.90;;
30303;SDS011;17112;48.636;10.152;2023-01-01T09:40:20;25.65;;;16.98;;
30303;SDS011;17112;48.636;10.152;2023-01-01T09:46:05;27.42;;;16.13;;
30303;SDS011;17112;48.636;10.152;2023-01-01T09:48:34;25.60;;;13.73;;
30303;SDS011;17112;48.636;10.152;2023-01-01T09:51:03;22.13;;;13.50;;
30303;SDS011;17112;48.636;10.152;2023-01-01T09:56:12;22.02;;;13.00;;
30303;SDS011;17112;48.636;10.152;2023-01-01T09:58:42;43.38;;;23.00;;
30303;SDS011;17112;48.636;10.152;2023-01-01T10:01:11;31.77;;;17.65;;
30303;SDS011;17112;48.636;10.152;2023-01-01T10:03:53;60.45;;;28.40;;
30303;SDS011;17112;48.636;10.152;2023-01-01T10:06:29;32.92;;;17.92;;
30303;SDS011;17112;48.636;10.152;2023-01-01T10:12:05;18.08;;;11.30;;
30303;SDS011;17112;48.636;10.152;2023-01-01T10:14:39;16.55;;;9.60;;
30303;SDS011;17112;48.636;10.152;2023-01-01T10:17:18;11.27;;;7.38;;
30303;SDS011;17112;48.636;10.152;2023-01-01T10:19:54;11.68;;;7.85;;
30303;SDS011;17112;48.636;10.152;2023-01-01T10:22:24;13.02;;;8.02;;
30303;SDS011;17112;48.636;10.152;2023-01-01T10:24:56;10.50;;;7.13;;
30303;SDS011;17112;48.636;10.152;2023-01-01T10:30:22;9.95;;;6.30;;
30303;SDS011;17112;48.636;10.152;2023-01-01T10:32:50;10.93;;;6.15;;
30303;SDS011;17112;48.636;10.152;2023-01-01T10:35:18;8.98;;;5.28;;
30303;SDS011;17112;48.636;10.152;2023-01-01T10:37:47;8.45;;;5.07;;
30303;SDS011;17112;48.636;10.152;2023-01-01T10:40:22;9.00;;;5.40;;
30303;SDS011;17112;48.636;10.152;2023-01-01T10:42:54;13.90;;;8.25;;
30303;SDS011;17112;48.636;10.152;2023-01-01T10:50:48;12.02;;;7.43;;
30303;SDS011;17112;48.636;10.152;2023-01-01T10:53:39;10.65;;;6.65;;
30303;SDS011;17112;48.636;10.152;2023-01-01T10:56:09;13.55;;;7.97;;
30303;SDS011;17112;48.636;10.152;2023-01-01T10:58:52;15.85;;;8.23;;
30303;SDS011;17112;48.636;10.152;2023-01-01T11:01:29;12.05;;;7.25;;
30303;SDS011;17112;48.636;10.152;2023-01-01T11:09:01;11.10;;;6.55;;
30303;SDS011;17112;48.636;10.152;2023-01-01T11:11:44;8.20;;;5.78;;
30303;SDS011;17112;48.636;10.152;2023-01-01T11:14:19;11.93;;;5.60;;
30303;SDS011;17112;48.636;10.152;2023-01-01T11:16:53;9.25;;;5.53;;
30303;SDS011;17112;48.636;10.152;2023-01-01T11:19:22;10.90;;;5.78;;
30303;SDS011;17112;48.636;10.152;2023-01-01T11:21:51;7.00;;;4.30;;
30303;SDS011;17112;48.636;10.152;2023-01-01T11:24:19;7.70;;;3.65;;
30303;SDS011;17112;48.636;10.152;2023-01-01T11:26:47;5.68;;;3.20;;
30303;SDS011;17112;48.636;10.152;2023-01-01T11:31:52;7.25;;;2.83;;
30303;SDS011;17112;48.636;10.152;2023-01-01T11:34:38;6.75;;;2.95;;
30303;SDS011;17112;48.636;10.152;2023-01-01T11:39:48;3.65;;;1.90;;
30303;SDS011;17112;48.636;10.152;2023-01-01T11:42:16;4.32;;;2.13;;
30303;SDS011;17112;48.636;10.152;2023-01-01T11:44:47;2.50;;;2.08;;
30303;SDS011;17112;48.636;10.152;2023-01-01T11:47:20;3.80;;;2.22;;
30303;SDS011;17112;48.636;10.152;2023-01-01T11:49:54;5.10;;;2.40;;
30303;SDS011;17112;48.636;10.152;2023-01-01T11:55:11;4.43;;;2.13;;
30303;SDS011;17112;48.636;10.152;2023-01-01T11:57:38;4.28;;;2.08;;
30303;SDS011;17112;48.636;10.152;2023-01-01T12:00:11;4.25;;;2.03;;
30303;SDS011;17112;48.636;10.152;2023-01-01T12:02:41;4.63;;;2.20;;
30303;SDS011;17112;48.636;10.152;2023-01-01T12:05:14;4.60;;;2.20;;
30303;SDS011;17112;48.636;10.152;2023-01-01T12:07:46;3.88;;;2.03;;
30303;SDS011;17112;48.636;10.152;2023-01-01T12:10:20;9.27;;;1.98;;
30303;SDS011;17112;48.636;10.152;2023-01-01T12:13:01;4.50;;;2.00;;
30303;SDS011;17112;48.636;10.152;2023-01-01T12:18:24;6.13;;;2.38;;
30303;SDS011;17112;48.636;10.152;2023-01-01T12:21:10;5.93;;;1.92;;
30303;SDS011;17112;48.636;10.152;2023-01-01T12:23:42;3.17;;;1.95;;
30303;SDS011;17112;48.636;10.152;2023-01-01T12:31:43;3.50;;;1.70;;
30303;SDS011;17112;48.636;10.152;2023-01-01T12:34:29;6.05;;;1.90;;
30303;SDS011;17112;48.636;10.152;2023-01-01T12:39:47;7.90;;;2.03;;
30303;SDS011;17112;48.636;10.152;2023-01-01T12:48:37;3.53;;;2.00;;
30303;SDS011;17112;48.636;10.152;2023-01-01T12:56:07;3.42;;;1.77;;
30303;SDS011;17112;48.636;10.152;2023-01-01T13:01:28;3.58;;;1.73;;
30303;SDS011;17112;48.636;10.152;2023-01-01T13:04:00;3.38;;;1.70;;
30303;SDS011;17112;48.636;10.152;2023-01-01T13:06:43;5.53;;;2.33;;
30303;SDS011;17112;48.636;10.152;2023-01-01T13:09:32;5.85;;;2.00;;
30303;SDS011;17112;48.636;10.152;2023-01-01T13:12:03;4.15;;;1.98;;
30303;SDS011;17112;48.636;10.152;2023-01-01T13:14:38;5.47;;;1.92;;
30303;SDS011;17112;48.636;10.152;2023-01-01T13:17:41;5.55;;;1.73;;
30303;SDS011;17112;48.636;10.152;2023-01-01T13:25:17;7.25;;;2.42;;
30303;SDS011;17112;48.636;10.152;2023-01-01T13:38:43;3.85;;;1.80;;
30303;SDS011;17112;48.636;10.152;2023-01-01T14:02:50;5.15;;;1.83;;
30303;SDS011;17112;48.636;10.152;2023-01-01T14:08:43;3.45;;;1.80;;
30303;SDS011;17112;48.636;10.152;2023-01-01T14:11:14;3.28;;;1.88;;
30303;SDS011;17112;48.636;10.152;2023-01-01T14:13:43;3.42;;;1.75;;
30303;SDS011;17112;48.636;10.152;2023-01-01T14:16:09;5.15;;;1.98;;
30303;SDS011;17112;48.636;10.152;2023-01-01T14:18:50;3.97;;;2.10;;
30303;SDS011;17112;48.636;10.152;2023-01-01T14:21:20;6.07;;;1.92;;
30303;SDS011;17112;48.636;10.152;2023-01-01T14:23:48;7.18;;;2.58;;
30303;SDS011;17112;48.636;10.152;2023-01-01T14:26:18;3.97;;;2.20;;
30303;SDS011;17112;48.636;10.152;2023-01-01T14:28:45;8.15;;;2.33;;
30303;SDS011;17112;48.636;10.152;2023-01-01T14:31:12;6.00;;;2.13;;
30303;SDS011;17112;48.636;10.152;2023-01-01T14:33:43;4.15;;;1.90;;
30303;SDS011;17112;48.636;10.152;2023-01-01T14:36:14;3.90;;;2.00;;
30303;SDS011;17112;48.636;10.152;2023-01-01T14:38:52;4.63;;;2.20;;
30303;SDS011;17112;48.636;10.152;2023-01-01T14:41:29;5.57;;;2.83;;
30303;SDS011;17112;48.636;10.152;2023-01-01T14:44:10;3.55;;;2.10;;
30303;SDS011;17112;48.636;10.152;2023-01-01T14:46:39;6.15;;;2.85;;
30303;SDS011;17112;48.636;10.152;2023-01-01T14:49:08;8.45;;;2.90;;
30303;SDS011;17112;48.636;10.152;2023-01-01T14:51:36;4.40;;;2.58;;
30303;SDS011;17112;48.636;10.152;2023-01-01T14:54:05;7.95;;;3.03;;
30303;SDS011;17112;48.636;10.152;2023-01-01T14:56:34;13.30;;;2.80;;
30303;SDS011;17112;48.636;10.152;2023-01-01T14:59:12;5.30;;;3.28;;
30303;SDS011;17112;48.636;10.152;2023-01-01T15:04:47;6.32;;;3.08;;
30303;SDS011;17112;48.636;10.152;2023-01-01T15:07:18;6.25;;;3.63;;
30303;SDS011;17112;48.636;10.152;2023-01-01T15:09:47;10.25;;;3.53;;
30303;SDS011;17112;48.636;10.152;2023-01-01T15:12:13;6.45;;;2.78;;
30303;SDS011;17112;48.636;10.152;2023-01-01T15:14:42;5.32;;;3.40;;
30303;SDS011;17112;48.636;10.152;2023-01-01T15:17:12;6.30;;;3.35;;
30303;SDS011;17112;48.636;10.152;2023-01-01T15:19:40;6.72;;;3.30;;
30303;SDS011;17112;48.636;10.152;2023-01-01T15:24:51;11.77;;;3.30;;
30303;SDS011;17112;48.636;10.152;2023-01-01T15:27:21;4.30;;;2.58;;
30303;SDS011;17112;48.636;10.152;2023-01-01T15:29:51;11.73;;;3.58;;
30303;SDS011;17112;48.636;10.152;2023-01-01T15:32:24;6.90;;;2.95;;
30303;SDS011;17112;48.636;10.152;2023-01-01T15:34:51;8.38;;;3.72;;
30303;SDS011;17112;48.636;10.152;2023-01-01T15:37:22;6.97;;;3.35;;
30303;SDS011;17112;48.636;10.152;2023-01-01T15:39:58;7.63;;;3.35;;
30303;SDS011;17112;48.636;10.152;2023-01-01T15:42:38;5.15;;;3.25;;
30303;SDS011;17112;48.636;10.152;2023-01-01T15:53:07;10.45;;;3.50;;
30303;SDS011;17112;48.636;10.152;2023-01-01T15:55:44;5.82;;;3.15;;
30303;SDS011;17112;48.636;10.152;2023-01-01T15:58:22;7.30;;;3.20;;
30303;SDS011;17112;48.636;10.152;2023-01-01T16:01:10;6.85;;;3.60;;
30303;SDS011;17112;48.636;10.152;2023-01-01T16:03:38;6.57;;;3.72;;
30303;SDS011;17112;48.636;10.152;2023-01-01T16:06:05;6.88;;;4.25;;
30303;SDS011;17112;48.636;10.152;2023-01-01T16:08:39;9.32;;;5.55;;
30303;SDS011;17112;48.636;10.152;2023-01-01T16:11:05;37.30;;;20.30;;
30303;SDS011;17112;48.636;10.152;2023-01-01T16:13:30;27.27;;;14.63;;
30303;SDS011;17112;48.636;10.152;2023-01-01T16:15:57;84.90;;;42.75;;
30303;SDS011;17112;48.636;10.152;2023-01-01T16:18:30;69.00;;;35.95;;
30303;SDS011;17112;48.636;10.152;2023-01-01T16:20:57;38.58;;;19.27;;
30303;SDS011;17112;48.636;10.152;2023-01-01T16:23:25;29.67;;;16.55;;
30303;SDS011;17112;48.636;10.152;2023-01-01T16:25:51;15.52;;;9.25;;
30303;SDS011;17112;48.636;10.152;2023-01-01T16:28:17;36.25;;;15.05;;
30303;SDS011;17112;48.636;10.152;2023-01-01T16:30:42;58.63;;;23.77;;
30303;SDS011;17112;48.636;10.152;2023-01-01T16:33:14;97.05;;;37.40;;
30303;SDS011;17112;48.636;10.152;2023-01-01T16:35:42;82.65;;;33.45;;
30303;SDS011;17112;48.636;10.152;2023-01-01T16:38:09;50.38;;;21.98;;